createdAt,value
2019-02-16T00:03:05.014Z,91.0
2019-02-16T00:08:04.561Z,91.0
2019-02-16T00:12:27.829Z,90.9
2019-02-16T00:17:28.109Z,90.8
2019-02-16T00:22:28.838Z,90.8
2019-02-16T00:27:28.159Z,90.7
2019-02-16T00:32:28.439Z,90.8
2019-02-16T00:37:27.585Z,90.6
2019-02-16T00:42:28.145Z,91.0
2019-02-16T00:47:28.217Z,90.6
2019-02-16T00:52:28.524Z,90.5
2019-02-16T00:57:29.215Z,90.5
2019-02-16T01:02:28.504Z,90.6
2019-02-16T01:07:28.132Z,90.4
2019-02-16T01:12:28.092Z,90.5
2019-02-16T01:17:28.283Z,90.5
2019-02-16T01:22:28.415Z,90.3
2019-02-16T01:27:28.356Z,90.3
2019-02-16T01:32:28.876Z,90.3
2019-02-16T01:37:29.003Z,90.4
2019-02-16T01:42:28.680Z,90.2
2019-02-16T01:47:28.437Z,90.4
2019-02-16T01:52:28.091Z,90.3
2019-02-16T01:57:28.365Z,90.0
2019-02-16T02:02:28.871Z,89.9
2019-02-16T02:07:28.084Z,90.1
2019-02-16T02:12:29.759Z,90.1
2019-02-16T02:17:28.774Z,90.2
2019-02-16T02:22:29.269Z,90.0
2019-02-16T02:27:27.914Z,89.9
2019-02-16T02:32:28.278Z,89.8
2019-02-16T02:37:28.614Z,89.9
2019-02-16T02:42:28.136Z,89.7
2019-02-16T02:47:29.276Z,89.5
2019-02-16T02:52:28.497Z,89.4
2019-02-16T02:57:28.027Z,89.5
2019-02-16T03:02:28.495Z,89.4
2019-02-16T03:07:28.906Z,89.3
2019-02-16T03:12:28.100Z,89.3
2019-02-16T03:17:28.290Z,89.2
2019-02-16T03:22:28.424Z,89.3
2019-02-16T03:27:28.321Z,89.2
2019-02-16T03:32:28.443Z,89.2
2019-02-16T03:37:28.378Z,89.1
2019-02-16T03:42:28.896Z,89.1
2019-02-16T03:47:28.805Z,89.2
2019-02-16T03:52:29.087Z,89.2
2019-02-16T03:57:28.332Z,89.1
2019-02-16T04:02:28.291Z,89.3
2019-02-16T04:07:28.600Z,89.2
2019-02-16T04:12:28.159Z,89.4
2019-02-16T04:17:28.532Z,89.4
2019-02-16T04:22:27.987Z,89.3
2019-02-16T04:27:29.351Z,89.5
2019-02-16T04:32:28.395Z,89.4
2019-02-16T04:37:28.603Z,89.2
2019-02-16T04:42:27.990Z,89.5
2019-02-16T04:47:28.233Z,89.5
2019-02-16T04:52:35.406Z,89.4
2019-02-16T04:57:28.338Z,89.3
2019-02-16T05:02:28.610Z,89.1
2019-02-16T05:07:29.159Z,89.4
2019-02-16T05:12:28.248Z,89.4
2019-02-16T05:17:28.096Z,89.4
2019-02-16T05:22:28.431Z,89.4
2019-02-16T05:27:28.712Z,89.5
2019-02-16T05:32:28.213Z,89.5
2019-02-16T05:37:30.936Z,89.7
2019-02-16T05:42:27.911Z,89.5
2019-02-16T05:47:29.793Z,89.5
2019-02-16T05:52:27.863Z,89.4
2019-02-16T05:57:28.639Z,89.4
2019-02-16T06:02:29.033Z,89.3
2019-02-16T06:07:29.073Z,89.2
2019-02-16T06:12:28.787Z,89.0
2019-02-16T06:17:28.998Z,89.4
2019-02-16T06:22:29.349Z,89.4
2019-02-16T06:27:28.858Z,89.5
2019-02-16T06:32:28.832Z,89.2
2019-02-16T06:37:28.632Z,89.2
2019-02-16T06:42:29.149Z,89.2
2019-02-16T06:47:29.413Z,89.2
2019-02-16T06:52:28.585Z,89.2
2019-02-16T06:57:28.673Z,89.2
2019-02-16T07:02:28.366Z,88.9
2019-02-16T07:07:29.137Z,88.8
2019-02-16T07:12:29.416Z,88.6
2019-02-16T07:17:29.029Z,88.5
2019-02-16T07:22:29.241Z,88.0
2019-02-16T07:27:28.700Z,87.7
2019-02-16T07:32:29.351Z,87.6
2019-02-16T07:37:28.770Z,87.4
2019-02-16T07:42:29.172Z,87.1
2019-02-16T07:47:29.261Z,86.9
2019-02-16T07:52:29.007Z,86.8
2019-02-16T07:57:28.685Z,86.8
2019-02-16T08:02:29.362Z,86.7
2019-02-16T08:07:28.738Z,86.7
2019-02-16T08:12:28.849Z,86.8
2019-02-16T08:17:29.090Z,86.6
2019-02-16T08:22:29.335Z,86.6
2019-02-16T08:27:29.119Z,86.7
2019-02-16T08:32:28.762Z,86.5
2019-02-16T08:37:29.077Z,86.9
2019-02-16T08:42:29.500Z,86.8
2019-02-16T08:47:28.659Z,86.8
2019-02-16T08:52:29.183Z,87.1
2019-02-16T08:57:29.088Z,87.1
2019-02-16T09:02:29.127Z,87.2
2019-02-16T09:07:28.968Z,87.1
2019-02-16T09:12:29.493Z,86.9
2019-02-16T09:17:29.195Z,87.5
2019-02-16T09:22:29.252Z,87.8
2019-02-16T09:27:29.446Z,88.1
2019-02-16T09:32:28.493Z,88.3
2019-02-16T09:37:29.354Z,88.6
2019-02-16T09:42:28.607Z,88.9
2019-02-16T09:47:29.423Z,89.1
2019-02-16T09:52:28.284Z,89.3
2019-02-16T09:57:28.634Z,89.7
2019-02-16T10:02:28.490Z,89.8
2019-02-16T10:07:30.924Z,90.4
2019-02-16T10:12:29.423Z,90.8
2019-02-16T10:17:28.892Z,90.7
2019-02-16T10:22:28.639Z,91.0
2019-02-16T10:27:29.109Z,91.3
2019-02-16T10:32:30.547Z,91.5
2019-02-16T10:37:28.202Z,92.7
2019-02-16T10:42:28.375Z,92.3
2019-02-16T10:47:29.026Z,92.5
2019-02-16T10:52:28.639Z,93.0
2019-02-16T10:57:28.530Z,93.3
2019-02-16T11:02:28.805Z,93.9
2019-02-16T11:07:28.891Z,93.9
2019-02-16T11:12:31.629Z,94.3
2019-02-16T11:17:29.555Z,94.8
2019-02-16T11:22:28.770Z,95.3
2019-02-16T11:27:28.641Z,95.4
2019-02-16T11:32:30.444Z,95.9
2019-02-16T11:37:29.388Z,95.9
2019-02-16T11:42:29.573Z,96.2
2019-02-16T11:47:28.530Z,96.5
2019-02-16T11:52:29.710Z,97.0
2019-02-16T11:57:30.083Z,97.4
2019-02-16T12:02:29.085Z,97.6
2019-02-16T12:07:28.903Z,98.0
2019-02-16T12:12:29.383Z,98.2
2019-02-16T12:17:29.972Z,98.4
2019-02-16T12:22:28.951Z,98.9
2019-02-16T12:27:28.703Z,99.1
2019-02-16T12:32:28.911Z,99.7
2019-02-16T12:37:29.516Z,99.7
2019-02-16T12:42:29.225Z,99.9
2019-02-16T12:47:28.579Z,99.9
2019-02-16T12:52:29.198Z,99.9
2019-02-16T12:57:28.217Z,99.9
2019-02-16T13:02:29.417Z,99.9
2019-02-16T13:07:29.410Z,99.9
2019-02-16T13:12:28.982Z,99.9
2019-02-16T13:17:29.549Z,99.9
2019-02-16T13:22:29.526Z,99.9
2019-02-16T13:27:29.485Z,99.9
2019-02-16T13:32:29.773Z,99.9
2019-02-16T13:37:29.263Z,99.9
2019-02-16T13:42:29.757Z,99.9
2019-02-16T13:47:29.084Z,99.9
2019-02-16T13:52:28.909Z,99.9
2019-02-16T13:57:28.693Z,99.9
2019-02-16T14:02:29.152Z,99.9
2019-02-16T14:07:30.192Z,99.9
2019-02-16T14:12:28.177Z,99.9
2019-02-16T14:17:29.245Z,99.9
2019-02-16T14:22:29.046Z,99.9
2019-02-16T14:27:28.876Z,99.8
2019-02-16T14:32:28.740Z,98.2
2019-02-16T14:37:28.949Z,94.2
2019-02-16T14:42:28.999Z,94.2
2019-02-16T14:47:29.035Z,91.9
2019-02-16T14:52:28.394Z,88.8
2019-02-16T14:57:28.517Z,86.9
2019-02-16T15:02:29.982Z,86.9
2019-02-16T15:07:30.172Z,84.5
2019-02-16T15:12:28.728Z,84.5
2019-02-16T15:17:29.682Z,83.7
2019-02-16T15:22:28.810Z,84.7
2019-02-16T15:27:29.067Z,86.8
2019-02-16T15:32:28.964Z,86.8
2019-02-16T15:37:29.005Z,90.7
2019-02-16T15:42:28.864Z,91.3
2019-02-16T15:47:28.115Z,86.6
2019-02-16T15:52:28.617Z,83.9
2019-02-16T15:57:29.444Z,82.6
2019-02-16T16:02:28.913Z,82.5
2019-02-16T16:07:29.528Z,83.4
2019-02-16T16:12:29.052Z,84.9
2019-02-16T16:17:30.218Z,84.9
2019-02-16T16:22:28.938Z,85.8
2019-02-16T16:27:29.737Z,86.4
2019-02-16T16:32:28.978Z,87.9
2019-02-16T16:37:29.998Z,89.5
2019-02-16T16:42:28.514Z,90.8
2019-02-16T16:47:29.096Z,93.7
2019-02-16T16:52:28.546Z,97.7
2019-02-16T16:57:29.793Z,98.2
2019-02-16T17:02:29.110Z,99.9
2019-02-16T17:07:28.998Z,99.9
2019-02-16T17:12:35.101Z,99.9
2019-02-16T17:17:29.535Z,99.9
2019-02-16T17:22:28.944Z,99.9
2019-02-16T17:27:29.577Z,99.9
2019-02-16T17:32:28.203Z,99.9
2019-02-16T17:37:29.091Z,99.9
2019-02-16T17:42:28.743Z,99.9
2019-02-16T17:47:28.457Z,99.9
2019-02-16T17:52:28.471Z,99.9
2019-02-16T17:57:28.115Z,99.9
2019-02-16T18:02:27.939Z,99.9
2019-02-16T18:07:28.478Z,99.9
2019-02-16T18:12:29.575Z,99.6
2019-02-16T18:17:28.245Z,99.3
2019-02-16T18:22:29.476Z,99.0
2019-02-16T18:27:28.797Z,98.4
2019-02-16T18:32:32.026Z,98.4
2019-02-16T18:37:28.587Z,98.2
2019-02-16T18:42:28.092Z,98.2
2019-02-16T18:47:28.318Z,98.0
2019-02-16T18:52:27.452Z,97.7
2019-02-16T18:57:28.495Z,97.3
2019-02-16T19:02:28.653Z,97.0
2019-02-16T19:07:28.634Z,97.0
2019-02-16T19:12:27.795Z,96.8
2019-02-16T19:17:28.307Z,96.6
2019-02-16T19:22:28.320Z,96.5
2019-02-16T19:27:28.303Z,96.2
2019-02-16T19:32:28.441Z,96.1
2019-02-16T19:37:28.842Z,95.8
2019-02-16T19:42:28.078Z,95.8
2019-02-16T19:47:28.371Z,95.6
2019-02-16T19:52:28.365Z,95.6
2019-02-16T19:57:27.888Z,95.5
2019-02-16T20:02:28.381Z,95.4
2019-02-16T20:07:29.117Z,94.9
2019-02-16T20:12:28.572Z,94.9
2019-02-16T20:17:29.701Z,94.7
2019-02-16T20:22:28.443Z,94.3
2019-02-16T20:27:37.874Z,94.3
2019-02-16T20:32:28.663Z,94.1
2019-02-16T20:37:28.506Z,94.1
2019-02-16T20:42:28.147Z,94.1
2019-02-16T20:47:28.384Z,93.8
2019-02-16T20:52:27.389Z,93.7
2019-02-16T20:57:28.493Z,93.5
2019-02-16T21:02:28.799Z,93.4
2019-02-16T21:07:29.854Z,93.2
2019-02-16T21:12:28.816Z,93.1
2019-02-16T21:17:28.727Z,92.8
2019-02-16T21:22:28.533Z,92.8
2019-02-16T21:27:28.350Z,92.7
2019-02-16T21:32:28.150Z,92.7
2019-02-16T21:37:29.386Z,92.4
2019-02-16T21:42:29.318Z,92.3
2019-02-16T21:47:28.377Z,92.1
2019-02-16T21:52:29.107Z,91.9
2019-02-16T21:57:29.284Z,91.7
2019-02-16T22:02:29.272Z,91.6
2019-02-16T22:07:29.279Z,91.5
2019-02-16T22:12:29.209Z,91.3
2019-02-16T22:17:28.902Z,91.3
2019-02-16T22:22:28.511Z,91.2
2019-02-16T22:27:28.005Z,90.9
2019-02-16T22:32:29.325Z,90.9
2019-02-16T22:37:27.925Z,90.5
2019-02-16T22:42:28.890Z,90.5
2019-02-16T22:47:28.631Z,90.7
2019-02-16T22:52:28.079Z,90.4
2019-02-16T22:57:28.985Z,90.4
2019-02-16T23:02:29.525Z,90.1
2019-02-16T23:07:29.002Z,89.9
2019-02-16T23:12:29.347Z,89.8
2019-02-16T23:23:05.172Z,89.0
2019-02-16T23:28:04.727Z,89.3
2019-02-16T23:33:04.167Z,89.5
2019-02-16T23:38:03.743Z,89.4
2019-02-16T23:43:04.209Z,89.2
2019-02-16T23:48:04.193Z,89.3
2019-02-16T23:53:03.422Z,89.3
2019-02-16T23:58:03.892Z,89.4
